Time;durP1;ratioP1;P1;durP2;ratioP2;P2;SDS_P1;SDS_P2;PMS_P1;PMS_P2;Temp;Humidity;BMP_temperature;BMP_pressure;BME280_temperature;BME280_humidity;BME280_pressure;Samples;Min_cycle;Max_cycle;Signal;HPM_P1;HPM_P2
2024/01/08 00:00:39;;;;;;;2.13;0.80;;;;;;;;;;5113460;28;20491;-73
2024/01/08 00:03:06;;;;;;;1.75;0.80;;;;;;;;;;5113802;28;20050;-77
2024/01/08 00:05:38;;;;;;;2.28;0.90;;;;;;;;;;5113739;28;20071;-78
2024/01/08 00:08:07;;;;;;;2.15;1.08;;;;;;;;;;5113450;28;20404;-77
2024/01/08 00:10:36;;;;;;;3.13;0.98;;;;;;;;;;5113167;28;20094;-77
2024/01/08 00:13:04;;;;;;;3.35;1.23;;;;;;;;;;5113502;28;20047;-76
2024/01/08 00:15:30;;;;;;;2.58;1.05;;;;;;;;;;5066315;28;20079;-76
2024/01/08 00:17:57;;;;;;;2.15;1.10;;;;;;;;;;5072805;28;20574;-77
2024/01/08 00:20:24;;;;;;;2.58;1.27;;;;;;;;;;5072722;28;20442;-78
2024/01/08 00:22:51;;;;;;;2.70;1.23;;;;;;;;;;5072312;28;20095;-75
2024/01/08 00:25:21;;;;;;;1.70;0.80;;;;;;;;;;5072223;28;20048;-76
2024/01/08 00:27:51;;;;;;;;;;;;;;;;;;5072909;28;20516;-77
2024/01/08 00:30:18;;;;;;;1.52;0.88;;;;;;;;;;5054797;28;19963;-78
2024/01/08 00:32:46;;;;;;;1.23;0.75;;;;;;;;;;5072412;28;20174;-75
2024/01/08 00:35:14;;;;;;;1.75;0.90;;;;;;;;;;5071955;28;20460;-76
2024/01/08 00:37:41;;;;;;;1.42;0.80;;;;;;;;;;5072247;28;20052;-77
2024/01/08 00:40:09;;;;;;;1.73;1.10;;;;;;;;;;5072339;28;20051;-78
2024/01/08 00:42:37;;;;;;;1.80;1.17;;;;;;;;;;5072248;28;20044;-76
2024/01/08 00:45:05;;;;;;;3.75;1.10;;;;;;;;;;5071749;28;20079;-75
2024/01/08 00:47:32;;;;;;;3.58;1.23;;;;;;;;;;5072293;28;20059;-77
2024/01/08 00:49:59;;;;;;;2.95;1.27;;;;;;;;;;5071812;28;20076;-75
2024/01/08 00:52:28;;;;;;;1.65;1.05;;;;;;;;;;5072033;28;20048;-74
2024/01/08 00:54:57;;;;;;;2.33;1.25;;;;;;;;;;5071601;28;20500;-79
2024/01/08 00:57:24;;;;;;;3.38;1.17;;;;;;;;;;5071812;28;20494;-75
2024/01/08 00:59:50;;;;;;;2.85;1.20;;;;;;;;;;5054264;28;20048;-77
2024/01/08 01:02:17;;;;;;;2.03;0.90;;;;;;;;;;5071838;28;20060;-75
2024/01/08 01:04:44;;;;;;;2.28;0.90;;;;;;;;;;5071166;28;20106;-78
2024/01/08 01:07:14;;;;;;;2.50;1.10;;;;;;;;;;5054129;28;20068;-76
2024/01/08 01:09:41;;;;;;;2.63;1.30;;;;;;;;;;5071628;28;20048;-77
2024/01/08 01:12:09;;;;;;;2.38;1.10;;;;;;;;;;5071847;28;20045;-78
2024/01/08 01:14:36;;;;;;;2.80;1.13;;;;;;;;;;5084298;28;20048;-76
2024/01/08 01:17:03;;;;;;;2.35;1.00;;;;;;;;;;5112087;28;20093;-76
2024/01/08 01:19:30;;;;;;;3.80;1.13;;;;;;;;;;5112367;28;20044;-77
2024/01/08 01:21:56;;;;;;;2.22;1.08;;;;;;;;;;5112107;28;20047;-77
2024/01/08 01:24:23;;;;;;;2.25;1.33;;;;;;;;;;5111630;28;20415;-76
2024/01/08 01:26:50;;;;;;;2.83;1.40;;;;;;;;;;5093869;28;20051;-76
2024/01/08 01:29:16;;;;;;;3.10;1.10;;;;;;;;;;5111753;28;20047;-76
2024/01/08 01:31:43;;;;;;;2.00;1.13;;;;;;;;;;5111978;28;20587;-78
2024/01/08 01:34:10;;;;;;;2.17;1.20;;;;;;;;;;5110928;28;20043;-75
2024/01/08 01:36:38;;;;;;;1.92;1.20;;;;;;;;;;5111621;28;20054;-79
2024/01/08 01:39:05;;;;;;;3.30;1.38;;;;;;;;;;5111669;28;20066;-76
2024/01/08 01:41:32;;;;;;;2.35;1.17;;;;;;;;;;5111465;28;20487;-76
2024/01/08 01:43:59;;;;;;;2.63;1.35;;;;;;;;;;5111385;28;20051;-76
2024/01/08 01:46:34;;;;;;;2.40;1.00;;;;;;;;;;5111397;28;20083;-76
2024/01/08 01:49:01;;;;;;;2.33;1.20;;;;;;;;;;5111565;28;20135;-76
2024/01/08 01:51:27;;;;;;;2.30;1.27;;;;;;;;;;5111358;28;20068;-78
2024/01/08 01:53:57;;;;;;;2.30;1.30;;;;;;;;;;5093505;28;20051;-75
2024/01/08 01:56:24;;;;;;;1.65;1.05;;;;;;;;;;5111009;28;20047;-76
2024/01/08 01:58:51;;;;;;;3.80;1.30;;;;;;;;;;5111143;28;20079;-78
2024/01/08 02:01:19;;;;;;;3.13;1.25;;;;;;;;;;5111072;28;20097;-76
2024/01/08 02:03:46;;;;;;;2.58;1.30;;;;;;;;;;5111258;28;20039;-78
2024/01/08 02:06:15;;;;;;;1.65;1.08;;;;;;;;;;5111354;28;20048;-74
2024/01/08 02:08:44;;;;;;;1.98;1.35;;;;;;;;;;5111097;28;20445;-73
2024/01/08 02:11:11;;;;;;;2.72;1.13;;;;;;;;;;5111147;28;20071;-75
2024/01/08 02:13:37;;;;;;;2.08;1.30;;;;;;;;;;5111109;28;20044;-76
2024/01/08 02:16:04;;;;;;;2.10;1.40;;;;;;;;;;5064715;28;20053;-76
2024/01/08 02:18:31;;;;;;;2.75;1.48;;;;;;;;;;5052357;28;20052;-77
2024/01/08 02:20:58;;;;;;;3.55;1.33;;;;;;;;;;5070326;28;20439;-77
2024/01/08 02:23:25;;;;;;;2.72;1.52;;;;;;;;;;5070565;28;20049;-74
2024/01/08 02:25:52;;;;;;;2.67;1.40;;;;;;;;;;5069960;28;20047;-77
2024/01/08 02:28:18;;;;;;;3.70;1.33;;;;;;;;;;5070120;28;20049;-78
2024/01/08 02:30:45;;;;;;;2.92;1.50;;;;;;;;;;5070423;28;20040;-78
2024/01/08 02:33:12;;;;;;;2.65;1.38;;;;;;;;;;5070140;28;20049;-77
2024/01/08 02:35:38;;;;;;;3.15;1.40;;;;;;;;;;5069938;28;20131;-76
2024/01/08 02:38:06;;;;;;;2.30;1.30;;;;;;;;;;5070097;28;20049;-78
2024/01/08 02:40:32;;;;;;;3.42;1.50;;;;;;;;;;5069783;28;20044;-77
2024/01/08 02:42:59;;;;;;;2.45;1.13;;;;;;;;;;5069985;28;20504;-79
2024/01/08 02:45:26;;;;;;;4.40;1.55;;;;;;;;;;5069235;28;20501;-78
2024/01/08 02:47:53;;;;;;;2.05;1.30;;;;;;;;;;5069935;28;20523;-76
2024/01/08 02:50:19;;;;;;;3.17;1.50;;;;;;;;;;5088207;28;20043;-77
2024/01/08 02:52:46;;;;;;;3.30;1.45;;;;;;;;;;5110649;28;20118;-77
2024/01/08 02:55:13;;;;;;;2.25;1.30;;;;;;;;;;5092397;28;20127;-77
2024/01/08 02:57:39;;;;;;;2.05;1.20;;;;;;;;;;5110165;28;20427;-77
2024/01/08 03:00:08;;;;;;;3.75;1.50;;;;;;;;;;5110389;28;20044;-77
2024/01/08 03:02:35;;;;;;;2.55;1.30;;;;;;;;;;5110520;28;20510;-75
2024/01/08 03:05:02;;;;;;;2.42;1.23;;;;;;;;;;5109805;28;20461;-77
2024/01/08 03:07:29;;;;;;;3.28;1.20;;;;;;;;;;5110506;28;20043;-78
2024/01/08 03:09:58;;;;;;;2.03;1.20;;;;;;;;;;5110185;28;20047;-78
2024/01/08 03:12:25;;;;;;;2.25;1.27;;;;;;;;;;5110337;28;20075;-78
2024/01/08 03:14:52;;;;;;;2.67;1.45;;;;;;;;;;5108082;28;20403;-76
2024/01/08 03:17:19;;;;;;;2.42;1.30;;;;;;;;;;5069506;28;20045;-76
2024/01/08 03:19:46;;;;;;;2.30;1.42;;;;;;;;;;5069498;28;20048;-77
2024/01/08 03:22:13;;;;;;;2.63;1.20;;;;;;;;;;5069587;28;20408;-77
2024/01/08 03:24:39;;;;;;;4.20;1.38;;;;;;;;;;5069595;28;20040;-73
2024/01/08 03:27:06;;;;;;;2.75;1.40;;;;;;;;;;5069406;28;20056;-76
2024/01/08 03:29:33;;;;;;;2.33;1.38;;;;;;;;;;5069348;28;20040;-75
2024/01/08 03:32:00;;;;;;;4.00;1.33;;;;;;;;;;5069346;28;20568;-78
2024/01/08 03:34:26;;;;;;;2.13;1.35;;;;;;;;;;5069759;28;20044;-77
2024/01/08 03:36:53;;;;;;;4.50;1.50;;;;;;;;;;5069450;28;20186;-77
2024/01/08 03:39:20;;;;;;;2.63;1.38;;;;;;;;;;5069099;28;20417;-77
2024/01/08 03:41:46;;;;;;;3.05;1.48;;;;;;;;;;5069366;28;20127;-75
2024/01/08 03:44:14;;;;;;;3.50;1.35;;;;;;;;;;5071048;28;20477;-77
2024/01/08 03:46:42;;;;;;;3.50;1.48;;;;;;;;;;5079451;28;20125;-72
2024/01/08 03:49:09;;;;;;;4.38;1.63;;;;;;;;;;5080215;28;20278;-77
2024/01/08 03:51:36;;;;;;;5.32;1.40;;;;;;;;;;5079432;28;20146;-76
2024/01/08 03:54:02;;;;;;;2.97;1.50;;;;;;;;;;5079099;28;20044;-76
2024/01/08 03:56:29;;;;;;;3.00;1.45;;;;;;;;;;5080474;28;20052;-79
2024/01/08 03:58:56;;;;;;;4.57;1.58;;;;;;;;;;5083300;28;20044;-78
2024/01/08 04:01:23;;;;;;;5.60;1.70;;;;;;;;;;5084052;28;20098;-76
2024/01/08 04:03:51;;;;;;;3.15;1.33;;;;;;;;;;5084124;28;20240;-75
2024/01/08 04:06:18;;;;;;;3.30;1.50;;;;;;;;;;5083745;28;20051;-75
2024/01/08 04:08:45;;;;;;;2.90;1.35;;;;;;;;;;5084005;28;20080;-76
2024/01/08 04:11:11;;;;;;;2.15;1.42;;;;;;;;;;5084025;28;20051;-76
2024/01/08 04:13:38;;;;;;;5.10;1.70;;;;;;;;;;5084085;28;20044;-74
2024/01/08 04:16:05;;;;;;;2.50;1.48;;;;;;;;;;5105540;28;20236;-76
2024/01/08 04:18:32;;;;;;;3.60;1.35;;;;;;;;;;5124762;28;20114;-76
2024/01/08 04:20:59;;;;;;;2.95;1.63;;;;;;;;;;5106587;28;20044;-76
2024/01/08 04:23:26;;;;;;;3.05;1.63;;;;;;;;;;5123485;28;20050;-75
2024/01/08 04:25:53;;;;;;;2.60;1.38;;;;;;;;;;5123064;28;20258;-76
2024/01/08 04:28:21;;;;;;;3.85;1.45;;;;;;;;;;5124229;28;20081;-77
2024/01/08 04:30:47;;;;;;;4.38;1.50;;;;;;;;;;5123145;28;20071;-77
2024/01/08 04:33:14;;;;;;;5.93;1.73;;;;;;;;;;5124314;28;20051;-76
2024/01/08 04:35:41;;;;;;;3.63;1.25;;;;;;;;;;5124140;28;20100;-78
2024/01/08 04:38:08;;;;;;;5.10;1.83;;;;;;;;;;5123341;28;20058;-76
2024/01/08 04:40:35;;;;;;;2.72;1.63;;;;;;;;;;5123978;28;20122;-75
2024/01/08 04:43:02;;;;;;;3.67;1.50;;;;;;;;;;5124060;28;20044;-72
2024/01/08 04:45:29;;;;;;;2.67;1.60;;;;;;;;;;5124105;28;20111;-74
2024/01/08 04:47:56;;;;;;;3.50;1.90;;;;;;;;;;5124183;28;20050;-74
2024/01/08 04:50:23;;;;;;;3.10;1.80;;;;;;;;;;5124121;28;20055;-71
2024/01/08 04:52:50;;;;;;;4.43;1.35;;;;;;;;;;5123966;28;20106;-77
2024/01/08 04:55:19;;;;;;;3.75;1.77;;;;;;;;;;5105397;28;20093;-75
2024/01/08 04:57:47;;;;;;;3.95;1.55;;;;;;;;;;5123042;28;20055;-72
2024/01/08 05:00:14;;;;;;;3.75;1.50;;;;;;;;;;5122868;28;20043;-77
2024/01/08 05:02:41;;;;;;;2.78;1.67;;;;;;;;;;5122540;28;20071;-75
2024/01/08 05:05:08;;;;;;;3.65;1.48;;;;;;;;;;5122203;28;20386;-76
2024/01/08 05:07:34;;;;;;;5.05;1.55;;;;;;;;;;5122587;28;20047;-76
2024/01/08 05:10:01;;;;;;;3.08;1.52;;;;;;;;;;5123099;28;20044;-79
2024/01/08 05:12:28;;;;;;;2.75;1.50;;;;;;;;;;5123701;28;20045;-76
2024/01/08 05:14:54;;;;;;;3.83;1.83;;;;;;;;;;5122342;28;20043;-78
2024/01/08 05:17:21;;;;;;;2.67;1.58;;;;;;;;;;5082548;28;20363;-76
2024/01/08 05:19:52;;;;;;;3.20;1.40;;;;;;;;;;5083035;28;20044;-75
2024/01/08 05:22:19;;;;;;;3.10;1.50;;;;;;;;;;5082713;28;20044;-77
2024/01/08 05:24:47;;;;;;;4.15;1.70;;;;;;;;;;5082529;28;20379;-77
2024/01/08 05:27:14;;;;;;;2.85;1.48;;;;;;;;;;5082489;28;20086;-78
2024/01/08 05:29:41;;;;;;;5.63;1.60;;;;;;;;;;5082611;28;20117;-77
2024/01/08 05:32:08;;;;;;;4.57;1.63;;;;;;;;;;5081499;28;20048;-74
2024/01/08 05:34:35;;;;;;;3.15;1.80;;;;;;;;;;5081937;28;20051;-77
2024/01/08 05:37:02;;;;;;;3.05;1.50;;;;;;;;;;5080593;28;20048;-77
2024/01/08 05:39:29;;;;;;;3.20;1.40;;;;;;;;;;5081113;28;20056;-75
2024/01/08 05:41:56;;;;;;;3.60;1.80;;;;;;;;;;5081705;28;20103;-79
2024/01/08 05:44:22;;;;;;;3.92;1.30;;;;;;;;;;5081463;28;20080;-77
2024/01/08 05:46:49;;;;;;;3.60;1.60;;;;;;;;;;5082363;28;20484;-77
2024/01/08 05:49:16;;;;;;;5.10;1.70;;;;;;;;;;5082073;28;20082;-76
2024/01/08 05:51:43;;;;;;;2.80;1.45;;;;;;;;;;5082302;28;20044;-74
2024/01/08 05:54:09;;;;;;;3.15;1.73;;;;;;;;;;5081954;28;20057;-77
2024/01/08 05:56:37;;;;;;;4.32;1.55;;;;;;;;;;5081996;28;20303;-75
2024/01/08 05:59:07;;;;;;;3.97;1.73;;;;;;;;;;5081522;28;20060;-77
2024/01/08 06:01:35;;;;;;;3.13;1.63;;;;;;;;;;5080466;28;20135;-79
2024/01/08 06:04:01;;;;;;;3.63;1.38;;;;;;;;;;5079882;28;20050;-77
2024/01/08 06:06:28;;;;;;;4.65;1.90;;;;;;;;;;5080763;28;20240;-79
2024/01/08 06:08:55;;;;;;;4.28;1.67;;;;;;;;;;5080278;28;20076;-76
2024/01/08 06:11:21;;;;;;;3.40;1.55;;;;;;;;;;5080687;28;20111;-77
2024/01/08 06:13:48;;;;;;;3.55;1.70;;;;;;;;;;5081585;28;20115;-80
2024/01/08 06:16:16;;;;;;;3.70;2.00;;;;;;;;;;5104655;28;20043;-79
2024/01/08 06:18:43;;;;;;;3.67;1.73;;;;;;;;;;5122232;28;20111;-78
2024/01/08 06:21:10;;;;;;;3.92;1.90;;;;;;;;;;5122452;28;20044;-79
2024/01/08 06:23:36;;;;;;;5.35;2.13;;;;;;;;;;5122127;28;20213;-77
2024/01/08 06:26:04;;;;;;;3.47;1.70;;;;;;;;;;5121740;28;20040;-78
2024/01/08 06:28:32;;;;;;;2.53;1.58;;;;;;;;;;5121019;28;20527;-78
2024/01/08 06:31:02;;;;;;;4.78;1.60;;;;;;;;;;5120691;28;20047;-76
2024/01/08 06:33:29;;;;;;;3.65;1.80;;;;;;;;;;5119739;28;20051;-77
2024/01/08 06:35:56;;;;;;;2.83;1.38;;;;;;;;;;5110663;28;20466;-78
2024/01/08 06:38:23;;;;;;;3.97;2.08;;;;;;;;;;5110069;28;20050;-78
2024/01/08 06:40:50;;;;;;;2.45;1.60;;;;;;;;;;5110505;28;20043;-77
2024/01/08 06:43:17;;;;;;;6.07;1.92;;;;;;;;;;5110405;28;20052;-76
2024/01/08 06:45:43;;;;;;;7.03;2.38;;;;;;;;;;5110351;28;20492;-77
2024/01/08 06:48:10;;;;;;;3.03;1.60;;;;;;;;;;5110571;28;20055;-76
2024/01/08 06:50:40;;;;;;;4.03;2.08;;;;;;;;;;5110502;28;20047;-79
2024/01/08 06:53:06;;;;;;;3.83;2.00;;;;;;;;;;5110907;28;20128;-76
2024/01/08 06:55:33;;;;;;;4.72;2.15;;;;;;;;;;5110349;28;20079;-77
2024/01/08 06:58:00;;;;;;;4.18;1.92;;;;;;;;;;5091962;28;20047;-76
2024/01/08 07:00:28;;;;;;;3.30;1.70;;;;;;;;;;5110100;28;20606;-75
2024/01/08 07:02:55;;;;;;;4.43;1.92;;;;;;;;;;5110333;28;20132;-77
2024/01/08 07:05:22;;;;;;;4.65;1.83;;;;;;;;;;5110105;28;20051;-76
2024/01/08 07:07:49;;;;;;;4.28;2.00;;;;;;;;;;5110144;28;20126;-74
2024/01/08 07:10:16;;;;;;;3.35;1.90;;;;;;;;;;5116140;28;20115;-76
2024/01/08 07:12:42;;;;;;;5.75;1.80;;;;;;;;;;5120678;28;20044;-76
2024/01/08 07:15:46;;;;;;;3.65;1.90;;;;;;;;;;5117554;28;20040;-79
2024/01/08 07:18:13;;;;;;;4.82;1.92;;;;;;;;;;5080768;28;20060;-75
2024/01/08 07:20:41;;;;;;;3.95;1.65;;;;;;;;;;5080826;28;20044;-77
2024/01/08 07:23:09;;;;;;;3.53;2.03;;;;;;;;;;5080928;28;20056;-74
2024/01/08 07:25:40;;;;;;;4.43;1.80;;;;;;;;;;5081207;28;20052;-80
2024/01/08 07:28:08;;;;;;;2.10;1.40;;;;;;;;;;5080768;28;20056;-79
2024/01/08 07:30:35;;;;;;;3.92;2.20;;;;;;;;;;5081204;28;20071;-78
2024/01/08 07:33:03;;;;;;;5.88;1.92;;;;;;;;;;5083156;28;20237;-74
2024/01/08 07:35:30;;;;;;;5.22;2.22;;;;;;;;;;5084725;28;20049;-76
2024/01/08 07:37:57;;;;;;;2.92;1.80;;;;;;;;;;5084826;28;20495;-75
2024/01/08 07:40:25;;;;;;;6.18;1.80;;;;;;;;;;5084408;28;20082;-74
2024/01/08 07:42:53;;;;;;;5.93;1.92;;;;;;;;;;5084933;28;20083;-73
2024/01/08 07:45:22;;;;;;;3.63;1.83;;;;;;;;;;5084032;28;20292;-74
2024/01/08 07:47:50;;;;;;;3.30;1.75;;;;;;;;;;5083532;28;20336;-74
2024/01/08 07:50:17;;;;;;;4.13;1.90;;;;;;;;;;5083093;28;20044;-74
2024/01/08 07:52:44;;;;;;;3.35;1.83;;;;;;;;;;5082739;28;20040;-77
2024/01/08 07:55:11;;;;;;;14.18;2.10;;;;;;;;;;5083043;28;20115;-76
2024/01/08 07:57:38;;;;;;;3.53;1.85;;;;;;;;;;5083343;28;20119;-75
2024/01/08 08:00:06;;;;;;;6.20;2.20;;;;;;;;;;5082844;28;20055;-78
2024/01/08 08:02:33;;;;;;;5.45;2.20;;;;;;;;;;5083515;28;20328;-77
2024/01/08 08:05:00;;;;;;;3.97;1.88;;;;;;;;;;5083696;28;20040;-78
2024/01/08 08:07:28;;;;;;;5.05;1.70;;;;;;;;;;5084426;28;20045;-77
2024/01/08 08:09:55;;;;;;;4.40;2.13;;;;;;;;;;5083982;28;20048;-78
2024/01/08 08:12:21;;;;;;;3.72;1.90;;;;;;;;;;5082083;28;20048;-77
2024/01/08 08:14:48;;;;;;;5.05;1.98;;;;;;;;;;5072769;28;20044;-76
2024/01/08 08:17:18;;;;;;;4.25;2.05;;;;;;;;;;5109534;28;20082;-76
2024/01/08 08:19:45;;;;;;;5.07;2.05;;;;;;;;;;5113533;28;20048;-76
2024/01/08 08:22:12;;;;;;;3.20;1.73;;;;;;;;;;5113574;28;20047;-78
2024/01/08 08:24:39;;;;;;;3.78;1.83;;;;;;;;;;5113040;28;20054;-78
2024/01/08 08:27:10;;;;;;;4.57;1.88;;;;;;;;;;5112764;28;20050;-75
2024/01/08 08:29:44;;;;;;;4.05;2.03;;;;;;;;;;5113039;28;20067;-77
2024/01/08 08:32:11;;;;;;;3.88;1.83;;;;;;;;;;5095055;28;20407;-78
2024/01/08 08:34:41;;;;;;;3.80;2.03;;;;;;;;;;5112816;28;20131;-75
2024/01/08 08:37:08;;;;;;;4.40;1.95;;;;;;;;;;5112828;28;20097;-77
2024/01/08 08:39:36;;;;;;;5.38;1.80;;;;;;;;;;5112795;28;20088;-79
2024/01/08 08:42:07;;;;;;;4.18;1.88;;;;;;;;;;5112694;28;20652;-78
2024/01/08 08:44:34;;;;;;;;;;;;;;;;;;5112034;28;20539;-75
2024/01/08 08:47:04;;;;;;;6.80;1.40;;;;;;;;;;5112800;28;19927;-77
2024/01/08 08:49:31;;;;;;;;;;;;;;;;;;5112768;28;20039;-74
2024/01/08 08:51:59;;;;;;;3.15;1.60;;;;;;;;;;5116260;28;19974;-77
2024/01/08 08:54:25;;;;;;;5.10;2.40;;;;;;;;;;5096220;28;20080;-74
2024/01/08 08:56:52;;;;;;;5.00;2.08;;;;;;;;;;5098630;28;20123;-76
2024/01/08 08:59:19;;;;;;;5.47;2.42;;;;;;;;;;5101386;28;20107;-75
2024/01/08 09:01:52;;;;;;;4.63;2.38;;;;;;;;;;5097702;28;20068;-70
2024/01/08 09:04:19;;;;;;;4.63;2.15;;;;;;;;;;5102571;28;20048;-75
2024/01/08 09:06:50;;;;;;;3.95;2.17;;;;;;;;;;5100752;28;20075;-78
2024/01/08 09:09:21;;;;;;;3.47;1.85;;;;;;;;;;5092770;28;20107;-74
2024/01/08 09:11:47;;;;;;;4.22;2.00;;;;;;;;;;5103019;28;20046;-79
2024/01/08 09:14:14;;;;;;;4.00;2.13;;;;;;;;;;5102331;28;20114;-79
2024/01/08 09:16:41;;;;;;;3.80;1.85;;;;;;;;;;5092391;28;20043;-75
2024/01/08 09:19:08;;;;;;;4.00;2.00;;;;;;;;;;5121116;28;20051;-79
2024/01/08 09:21:34;;;;;;;4.18;2.22;;;;;;;;;;5122535;28;20237;-75
2024/01/08 09:24:01;;;;;;;4.70;2.05;;;;;;;;;;5122974;28;20208;-76
2024/01/08 09:26:28;;;;;;;6.53;2.17;;;;;;;;;;5123590;28;20051;-72
2024/01/08 09:28:55;;;;;;;4.57;2.10;;;;;;;;;;5123053;28;20081;-76
2024/01/08 09:31:22;;;;;;;4.57;2.17;;;;;;;;;;5112114;28;20062;-77
2024/01/08 09:33:48;;;;;;;4.03;1.88;;;;;;;;;;5113507;28;20048;-76
2024/01/08 09:36:15;;;;;;;4.35;2.08;;;;;;;;;;5111718;28;20409;-73
2024/01/08 09:38:42;;;;;;;4.53;1.90;;;;;;;;;;5111321;28;20047;-72
2024/01/08 09:41:12;;;;;;;4.55;2.15;;;;;;;;;;5074920;28;20044;-76
2024/01/08 09:43:50;;;;;;;3.47;1.80;;;;;;;;;;5091024;28;20050;-78
2024/01/08 09:46:38;;;;;;;4.07;2.00;;;;;;;;;;5091426;28;20614;-75
2024/01/08 09:49:05;;;;;;;4.03;1.98;;;;;;;;;;5090742;28;20147;-74
2024/01/08 09:51:32;;;;;;;5.28;1.98;;;;;;;;;;5091443;28;20060;-78
2024/01/08 09:54:00;;;;;;;5.70;2.50;;;;;;;;;;5091563;28;20079;-77
2024/01/08 09:56:27;;;;;;;5.90;1.60;;;;;;;;;;5090737;28;20044;-77
2024/01/08 09:58:54;;;;;;;4.10;2.10;;;;;;;;;;5090439;28;20048;-79
2024/01/08 10:01:21;;;;;;;3.83;1.98;;;;;;;;;;5089558;28;20048;-74
2024/01/08 10:03:48;;;;;;;3.78;2.08;;;;;;;;;;5089038;28;20601;-74
2024/01/08 10:06:15;;;;;;;4.18;1.85;;;;;;;;;;5090939;28;20062;-75
2024/01/08 10:08:41;;;;;;;3.33;1.80;;;;;;;;;;5090915;28;20044;-77
2024/01/08 10:11:10;;;;;;;5.53;2.13;;;;;;;;;;5090546;28;20060;-74
2024/01/08 10:13:39;;;;;;;5.47;2.05;;;;;;;;;;5090846;28;20524;-73
2024/01/08 10:16:07;;;;;;;3.72;2.05;;;;;;;;;;5098252;28;20517;-73
2024/01/08 10:18:34;;;;;;;4.47;2.30;;;;;;;;;;5119478;28;20584;-74
2024/01/08 10:21:12;;;;;;;5.25;1.80;;;;;;;;;;5090898;28;20047;-77
2024/01/08 10:23:39;;;;;;;5.57;2.03;;;;;;;;;;5077446;28;20059;-72
2024/01/08 10:26:10;;;;;;;4.22;1.98;;;;;;;;;;5090342;28;20044;-75
2024/01/08 10:28:37;;;;;;;;;;;;;;;;;;5083426;28;20125;-73
2024/01/08 10:31:05;;;;;;;3.20;1.85;;;;;;;;;;5091072;28;19927;-74
2024/01/08 10:33:32;;;;;;;3.17;1.90;;;;;;;;;;5085151;28;20498;-72
2024/01/08 10:36:04;;;;;;;4.38;2.08;;;;;;;;;;5070040;28;20044;-72
2024/01/08 10:38:32;;;;;;;6.47;2.33;;;;;;;;;;5078108;28;20059;-73
2024/01/08 10:41:03;;;;;;;5.57;2.15;;;;;;;;;;5089502;28;20084;-71
2024/01/08 10:43:30;;;;;;;5.13;2.40;;;;;;;;;;5100111;28;20332;-74
2024/01/08 10:45:59;;;;;;;4.45;2.17;;;;;;;;;;5083460;28;20120;-72
2024/01/08 10:48:40;;;;;;;3.72;2.10;;;;;;;;;;5084239;28;20421;-74
2024/01/08 10:51:08;;;;;;;5.57;2.55;;;;;;;;;;5097823;28;20070;-72
2024/01/08 10:53:46;;;;;;;5.47;2.45;;;;;;;;;;5094546;28;20051;-74
2024/01/08 10:56:15;;;;;;;4.60;2.42;;;;;;;;;;5093206;28;20048;-74
2024/01/08 10:59:00;;;;;;;3.53;1.98;;;;;;;;;;5090841;28;20050;-73
2024/01/08 11:01:31;;;;;;;4.63;2.25;;;;;;;;;;5089983;28;20087;-73
2024/01/08 11:04:05;;;;;;;6.32;3.00;;;;;;;;;;5089844;28;20056;-71
2024/01/08 11:06:41;;;;;;;7.50;3.45;;;;;;;;;;5089084;28;20146;-72
2024/01/08 11:09:25;;;;;;;7.57;2.95;;;;;;;;;;5089227;28;20527;-72
2024/01/08 11:11:54;;;;;;;5.95;3.00;;;;;;;;;;5089707;28;20050;-71
2024/01/08 11:14:23;;;;;;;7.50;3.72;;;;;;;;;;5089601;28;20071;-71
2024/01/08 11:16:51;;;;;;;9.70;3.35;;;;;;;;;;5099179;28;20043;-73
2024/01/08 11:19:17;;;;;;;8.38;3.50;;;;;;;;;;5109010;28;20423;-72
2024/01/08 11:21:47;;;;;;;9.27;3.80;;;;;;;;;;5089871;28;20048;-72
2024/01/08 11:24:14;;;;;;;7.25;3.65;;;;;;;;;;5069278;28;20044;-72
2024/01/08 11:26:48;;;;;;;7.38;3.70;;;;;;;;;;5092072;28;20052;-73
2024/01/08 11:29:16;;;;;;;6.20;3.13;;;;;;;;;;5109761;28;20052;-72
2024/01/08 11:31:42;;;;;;;6.60;3.50;;;;;;;;;;5110710;28;20117;-75
2024/01/08 11:34:31;;;;;;;6.90;3.30;;;;;;;;;;5110464;28;20104;-73
2024/01/08 11:37:24;;;;;;;7.35;3.80;;;;;;;;;;5109896;28;20439;-73
2024/01/08 11:39:53;;;;;;;5.63;3.03;;;;;;;;;;5095932;28;20537;-74
2024/01/08 11:42:21;;;;;;;7.65;3.67;;;;;;;;;;5110057;28;20061;-73
2024/01/08 11:44:49;;;;;;;11.65;4.25;;;;;;;;;;5109755;28;20048;-72
2024/01/08 11:47:16;;;;;;;6.40;3.50;;;;;;;;;;5109874;28;20054;-73
2024/01/08 11:49:44;;;;;;;8.45;4.20;;;;;;;;;;5075758;28;20128;-72
2024/01/08 11:52:11;;;;;;;7.32;3.67;;;;;;;;;;5069129;28;20412;-75
2024/01/08 11:54:38;;;;;;;6.88;3.03;;;;;;;;;;5069287;28;20048;-76
2024/01/08 11:57:05;;;;;;;8.27;3.10;;;;;;;;;;5070386;28;20127;-72
2024/01/08 11:59:36;;;;;;;5.35;2.95;;;;;;;;;;5070561;28;20044;-78
2024/01/08 12:02:14;;;;;;;6.43;2.78;;;;;;;;;;5067562;28;20138;-75
2024/01/08 12:04:42;;;;;;;4.97;2.30;;;;;;;;;;5069125;28;20044;-79
2024/01/08 12:07:12;;;;;;;3.80;2.08;;;;;;;;;;5086013;28;20048;-82
2024/01/08 12:09:39;;;;;;;4.93;2.47;;;;;;;;;;5089311;28;20107;-76
2024/01/08 12:12:08;;;;;;;3.80;1.98;;;;;;;;;;5091005;28;20044;-76
2024/01/08 12:14:36;;;;;;;5.45;2.20;;;;;;;;;;5094707;28;20040;-75
2024/01/08 12:17:04;;;;;;;4.68;1.75;;;;;;;;;;5091504;28;20056;-75
2024/01/08 12:19:43;;;;;;;3.75;2.10;;;;;;;;;;5072066;28;20492;-75
2024/01/08 12:22:12;;;;;;;3.47;1.85;;;;;;;;;;5072049;28;20054;-74
2024/01/08 12:24:39;;;;;;;3.22;2.08;;;;;;;;;;5070563;28;20040;-75
2024/01/08 12:27:07;;;;;;;4.00;2.30;;;;;;;;;;5085592;28;20067;-73
2024/01/08 12:29:38;;;;;;;3.72;2.15;;;;;;;;;;5091200;28;20040;-75
2024/01/08 12:32:06;;;;;;;3.08;1.73;;;;;;;;;;5092753;28;20044;-73
2024/01/08 12:34:36;;;;;;;3.38;2.17;;;;;;;;;;5092554;28;20044;-76
2024/01/08 12:37:06;;;;;;;4.82;2.40;;;;;;;;;;5091951;28;20563;-71
2024/01/08 12:39:34;;;;;;;3.90;1.73;;;;;;;;;;5091780;28;20044;-75
2024/01/08 12:42:06;;;;;;;5.68;2.47;;;;;;;;;;5092492;28;20051;-74
2024/01/08 12:44:33;;;;;;;3.83;2.20;;;;;;;;;;5091982;28;20047;-74
2024/01/08 12:47:01;;;;;;;5.43;2.58;;;;;;;;;;5092146;28;20140;-74
2024/01/08 12:49:28;;;;;;;4.68;2.55;;;;;;;;;;5091855;28;20047;-75
2024/01/08 12:51:56;;;;;;;3.75;2.45;;;;;;;;;;5091977;28;20044;-75
2024/01/08 12:54:22;;;;;;;4.53;2.63;;;;;;;;;;5092018;28;20048;-75
2024/01/08 12:56:50;;;;;;;5.30;2.65;;;;;;;;;;5091630;28;20040;-72
2024/01/08 12:59:17;;;;;;;3.88;2.28;;;;;;;;;;5094399;28;20048;-74
2024/01/08 13:01:44;;;;;;;4.93;2.33;;;;;;;;;;5097581;28;20116;-76
2024/01/08 13:04:12;;;;;;;4.43;2.50;;;;;;;;;;5096861;28;20055;-74
2024/01/08 13:06:43;;;;;;;4.88;2.53;;;;;;;;;;5093856;28;20052;-75
2024/01/08 13:09:10;;;;;;;;;;;;;;;;;;5091994;28;20075;-73
2024/01/08 13:11:37;;;;;;;4.68;2.55;;;;;;;;;;5093781;28;19919;-77
2024/01/08 13:14:12;;;;;;;5.50;2.72;;;;;;;;;;5091253;28;20143;-74
2024/01/08 13:16:43;;;;;;;4.93;2.85;;;;;;;;;;5091255;28;20043;-82
2024/01/08 13:19:10;;;;;;;5.22;2.78;;;;;;;;;;5091147;28;20048;-77
2024/01/08 13:21:41;;;;;;;4.15;2.55;;;;;;;;;;5075890;28;20449;-73
2024/01/08 13:24:12;;;;;;;4.85;2.80;;;;;;;;;;5073117;28;20056;-76
2024/01/08 13:26:39;;;;;;;4.57;2.47;;;;;;;;;;5081524;28;20044;-76
2024/01/08 13:29:08;;;;;;;5.38;3.05;;;;;;;;;;5090964;28;20531;-88
2024/01/08 13:31:38;;;;;;;6.03;3.33;;;;;;;;;;5073892;28;20093;-82
2024/01/08 13:34:06;;;;;;;4.63;2.55;;;;;;;;;;5091700;28;20052;-78
2024/01/08 13:36:34;;;;;;;5.93;3.20;;;;;;;;;;5091202;28;20048;-85
2024/01/08 13:39:09;;;;;;;4.15;2.58;;;;;;;;;;5091164;28;20446;-75
2024/01/08 13:41:38;;;;;;;5.07;2.45;;;;;;;;;;5090832;28;20116;-79
2024/01/08 13:44:06;;;;;;;5.60;3.30;;;;;;;;;;5073094;28;20583;-76
2024/01/08 13:46:33;;;;;;;5.25;3.20;;;;;;;;;;5090850;28;20585;-79
2024/01/08 13:49:01;;;;;;;4.88;2.72;;;;;;;;;;5083826;28;20275;-77
2024/01/08 13:51:28;;;;;;;3.58;2.28;;;;;;;;;;5093084;28;20072;-75
2024/01/08 13:53:55;;;;;;;4.90;2.42;;;;;;;;;;5090792;28;20090;-75
2024/01/08 13:56:22;;;;;;;6.38;3.17;;;;;;;;;;5098997;28;20094;-75
2024/01/08 13:58:49;;;;;;;5.95;2.90;;;;;;;;;;5101967;28;20040;-75
2024/01/08 14:01:17;;;;;;;5.05;2.35;;;;;;;;;;5101227;28;20143;-76
2024/01/08 14:03:44;;;;;;;5.65;2.63;;;;;;;;;;5084412;28;20044;-73
2024/01/08 14:06:14;;;;;;;5.45;2.40;;;;;;;;;;5101237;28;20107;-74
2024/01/08 14:08:41;;;;;;;4.45;2.55;;;;;;;;;;5101893;28;20043;-77
2024/01/08 14:11:08;;;;;;;4.40;2.30;;;;;;;;;;5101150;28;20044;-75
2024/01/08 14:13:35;;;;;;;6.00;2.53;;;;;;;;;;5100696;28;20051;-74
2024/01/08 14:16:07;;;;;;;6.18;3.20;;;;;;;;;;5092693;28;20135;-78
2024/01/08 14:18:34;;;;;;;7.63;3.97;;;;;;;;;;5110643;28;20044;-74
2024/01/08 14:21:02;;;;;;;6.72;3.38;;;;;;;;;;5093829;28;20051;-74
2024/01/08 14:23:31;;;;;;;5.78;2.85;;;;;;;;;;5111477;28;20058;-76
2024/01/08 14:25:58;;;;;;;6.30;3.30;;;;;;;;;;5110342;28;20093;-75
2024/01/08 14:28:28;;;;;;;7.07;2.78;;;;;;;;;;5113254;28;20155;-75
2024/01/08 14:30:55;;;;;;;6.30;3.10;;;;;;;;;;5116233;28;20106;-76
2024/01/08 14:33:21;;;;;;;5.20;2.72;;;;;;;;;;5121954;28;20264;-72
2024/01/08 14:35:48;;;;;;;5.65;2.85;;;;;;;;;;5121357;28;20044;-73
2024/01/08 14:38:15;;;;;;;7.00;2.72;;;;;;;;;;5120975;28;20047;-76
2024/01/08 14:40:44;;;;;;;6.72;2.75;;;;;;;;;;5120377;28;20096;-78
2024/01/08 14:43:12;;;;;;;5.75;2.38;;;;;;;;;;5110445;28;20044;-75
2024/01/08 14:45:38;;;;;;;6.35;2.80;;;;;;;;;;5110317;28;20114;-77
2024/01/08 14:48:05;;;;;;;5.15;2.50;;;;;;;;;;5104126;28;20555;-73
2024/01/08 15:08:39;;;;;;;6.70;3.33;;;;;;;;;;5169793;27;20198;-75